Fort Campbell, KY

2:44 AM CDT en Octubre 24, 2014 (GMT -0500)
Campbell Army Air Field | Change Station
CLOSE
Current Station
Aeropuerto
Location: Fort Campbell,
Altura: 571 ft
Estaciones meteorológicas cercanas

Alt 571 ft 36.67 °N, 87.50 °W | Updated 46 minutes ago

Muy nublado
Muy nublado
49 ° F
Sensación térmica 49 ° F
N
4
Viento Variable Viento desde OSO

Hoy
Alta -- | Baja -- ° F
--% Posibilidad de precipitaciones
Ayer
Alta -- | Baja -- ° F
Precip. -- pul
7:05 AM 6:01 PM
Luna nueva, 0% visible
Presión 30.12 pul
Visibilidad 10.0 Millas
Nubes Muy nublado 15000 ft
Punto de rocío 48 ° F
Humedad 96%
Precipitaciones 0.00 pul
Espesor de la nieve No disponible.
UV 0 de una escala de 12
Polen 1.50 de una escala de 12
Calidad del aire No disponible.
Flu Activity Sporadic
METAR KHOP 240658Z AUTO 24003KT 10SM BKN150 09/09 A3011 RMK AO2 SLP197 T00930087

More Conditions Fewer Conditions

Presión 30.12 pul
Visibilidad 10.0 Millas
Nubes Muy nublado 15000 ft
Punto de rocío 48 ° F
Humedad 96%
Precipitaciones 0.00 pul
Espesor de la nieve No disponible.
UV 0 de una escala de 12
Polen 1.50 de una escala de 12
Calidad del aire No disponible.
Flu Activity Sporadic
METAR KHOP 240658Z AUTO 24003KT 10SM BKN150 09/09 A3011 RMK AO2 SLP197 T00930087

More Conditions Fewer Conditions

10-Day Weather Forecast

Almanac

Astronomía

Oct. 24, 2014 Salida Puesta
Hora real 7:05 AM CDT 6:01 PM CDT
Crepúsculo civil 6:39 AM CDT 6:28 PM CDT
Crepúsculo náutico 6:08 AM CDT 6:58 PM CDT
Crepúsculo astronómico 5:38 AM CDT 7:28 PM CDT
Luna 7:43 AM CDT 6:43 PM CDT
Horas de luz 11h 49m
Horas de luz
10h 56m
Tomorrow will be 2m 8s shorter.
Luna nueva, 0% of the Moon is Illuminated
Hoy
Luna nueva
Oct 30
Cuarto creciente
Nov 6
Luna llena
Nov 14
Cuarto menguante
Nov 22
Nueva

Extremos de hoy

Máximos del estado Bajos del estado

Community

WunderPhotos

Upload Photos

1,764,512 ¡fotos cargadas!

WunderBlogs® & News

Nearby

Calidad del aire

  Calidad del aire Índice AQ Contaminante
Ayer Buena
PM2.5
Viernes Buena
PM2.5
Viernes Buena
OZONE
Sábado Buena
PM2.5
Sábado Buena
OZONE

Grosos de nieve

Estación Profundido Altura
No tenemos constancia de nieve nueva.

Actividad de terremotos

Ciudad Distance Mag. Tiempo y dato
No hay informes recientes de la actividad sísmica.
Magnitud mínima muestra es 2,5.

Temperaturas de aguas costeras

Lugar Temperatura
Sin partes meteorológicos de las estaciones

Estaciones meteorológicas cercanas